Time;durP1;ratioP1;P1;durP2;ratioP2;P2;SDS_P1;SDS_P2;PMS_P1;PMS_P2;Temp;Humidity;BMP_temperature;BMP_pressure;BME280_temperature;BME280_humidity;BME280_pressure;Samples;Min_cycle;Max_cycle;Signal;HPM_P1;HPM_P2
2023/09/17 00:00:28;;;;;;;3.95;3.45;;;;;;;;;;5017696;28;20040;-72
2023/09/17 00:02:55;;;;;;;3.60;3.30;;;;;;;;;;4993843;28;20145;-72
2023/09/17 00:05:21;;;;;;;3.10;2.85;;;;;;;;;;5005549;28;20126;-72
2023/09/17 00:07:46;;;;;;;3.08;2.78;;;;;;;;;;5010009;28;20131;-72
2023/09/17 00:10:12;;;;;;;3.80;3.40;;;;;;;;;;5013905;28;20124;-72
2023/09/17 00:12:37;;;;;;;3.08;2.78;;;;;;;;;;5011442;28;20041;-72
2023/09/17 00:15:03;;;;;;;4.10;3.65;;;;;;;;;;5009517;28;20037;-74
2023/09/17 00:17:28;;;;;;;4.75;3.40;;;;;;;;;;4997770;28;20586;-73
2023/09/17 00:19:54;;;;;;;3.65;3.30;;;;;;;;;;5014449;28;20033;-73
2023/09/17 00:22:19;;;;;;;4.00;3.60;;;;;;;;;;5010746;28;20087;-73
2023/09/17 00:24:45;;;;;;;3.58;3.28;;;;;;;;;;5010529;28;20729;-74
2023/09/17 00:27:10;;;;;;;3.80;3.50;;;;;;;;;;5005191;28;20833;-73
2023/09/17 00:29:36;;;;;;;4.70;3.60;;;;;;;;;;4999290;28;20046;-74
2023/09/17 00:32:02;;;;;;;3.35;3.15;;;;;;;;;;4992784;28;20195;-73
2023/09/17 00:34:27;;;;;;;3.60;3.30;;;;;;;;;;5015056;28;20045;-72
2023/09/17 00:36:53;;;;;;;3.70;3.40;;;;;;;;;;5010283;28;20047;-72
2023/09/17 00:39:18;;;;;;;6.28;3.92;;;;;;;;;;5009709;28;20117;-72
2023/09/17 00:41:43;;;;;;;3.45;3.15;;;;;;;;;;5009660;28;20034;-71
2023/09/17 00:44:09;;;;;;;3.22;2.92;;;;;;;;;;4999318;28;20108;-72
2023/09/17 00:46:35;;;;;;;3.15;2.88;;;;;;;;;;4996407;28;20053;-73
2023/09/17 00:49:01;;;;;;;3.83;3.15;;;;;;;;;;5002618;28;20037;-72
2023/09/17 00:51:27;;;;;;;3.63;3.33;;;;;;;;;;5016331;28;20115;-71
2023/09/17 00:53:58;;;;;;;3.35;3.05;;;;;;;;;;5013560;28;20123;-73
2023/09/17 00:56:26;;;;;;;4.13;3.70;;;;;;;;;;4998432;28;20172;-72
2023/09/17 00:58:52;;;;;;;5.55;4.80;;;;;;;;;;4994826;28;20044;-71
2023/09/17 01:01:19;;;;;;;3.65;3.03;;;;;;;;;;5007544;28;20049;-72
2023/09/17 01:03:44;;;;;;;3.53;3.22;;;;;;;;;;5014909;28;20032;-72
2023/09/17 01:06:12;;;;;;;3.47;3.17;;;;;;;;;;5012980;28;20053;-73
2023/09/17 01:08:39;;;;;;;4.97;3.92;;;;;;;;;;4996711;28;20124;-72
2023/09/17 01:11:07;;;;;;;5.03;3.83;;;;;;;;;;4986711;28;20038;-72
2023/09/17 01:13:34;;;;;;;4.55;3.50;;;;;;;;;;5005115;28;20056;-73
2023/09/17 01:16:00;;;;;;;4.78;4.03;;;;;;;;;;5008488;28;20037;-72
2023/09/17 01:18:27;;;;;;;4.30;3.90;;;;;;;;;;5011378;28;20090;-72
2023/09/17 01:21:00;;;;;;;4.38;3.97;;;;;;;;;;5010427;28;20037;-73
2023/09/17 01:23:35;;;;;;;4.78;3.45;;;;;;;;;;5001105;28;20120;-73
2023/09/17 01:26:29;;;;;;;4.35;3.95;;;;;;;;;;4974845;28;20515;-73
2023/09/17 01:28:56;;;;;;;4.13;3.72;;;;;;;;;;5012056;28;20090;-73
2023/09/17 01:31:22;;;;;;;4.43;3.65;;;;;;;;;;5014096;28;20052;-73
2023/09/17 01:33:49;;;;;;;3.58;3.28;;;;;;;;;;5003208;28;20103;-72
2023/09/17 01:36:18;;;;;;;4.45;3.72;;;;;;;;;;5000114;28;20115;-72
2023/09/17 01:38:50;;;;;;;4.15;3.63;;;;;;;;;;4983866;28;20042;-72
2023/09/17 01:41:17;;;;;;;4.40;4.00;;;;;;;;;;5001433;28;20045;-72
2023/09/17 01:43:44;;;;;;;4.45;3.75;;;;;;;;;;5007263;28;20041;-72
2023/09/17 01:46:10;;;;;;;4.20;3.80;;;;;;;;;;5007282;28;20060;-72
2023/09/17 01:48:37;;;;;;;3.50;3.20;;;;;;;;;;4996300;28;20571;-72
2023/09/17 01:51:03;;;;;;;3.80;3.05;;;;;;;;;;4994545;28;20129;-73
2023/09/17 01:53:28;;;;;;;3.80;3.50;;;;;;;;;;5006459;28;20128;-72
2023/09/17 01:55:56;;;;;;;3.90;3.58;;;;;;;;;;5003967;28;20540;-72
2023/09/17 01:58:22;;;;;;;4.68;3.85;;;;;;;;;;5011487;28;20037;-72
2023/09/17 02:00:49;;;;;;;2.90;2.70;;;;;;;;;;5008116;28;20044;-72
2023/09/17 02:03:14;;;;;;;3.38;3.08;;;;;;;;;;4998424;28;20056;-72
2023/09/17 02:05:40;;;;;;;3.25;2.95;;;;;;;;;;4996796;28;20037;-72
2023/09/17 02:08:05;;;;;;;3.42;3.13;;;;;;;;;;5010188;28;20037;-72
2023/09/17 02:10:31;;;;;;;2.88;2.60;;;;;;;;;;5014612;28;20123;-72
2023/09/17 02:12:56;;;;;;;3.60;3.13;;;;;;;;;;5008732;28;20076;-72
2023/09/17 02:15:22;;;;;;;4.55;4.10;;;;;;;;;;4997370;28;20049;-71
2023/09/17 02:17:50;;;;;;;4.80;3.65;;;;;;;;;;4995778;28;20191;-72
2023/09/17 02:20:16;;;;;;;4.45;3.90;;;;;;;;;;4979116;28;20353;-72
2023/09/17 02:22:41;;;;;;;3.42;3.13;;;;;;;;;;5006785;28;20723;-72
2023/09/17 02:25:07;;;;;;;4.07;3.55;;;;;;;;;;5007645;28;20033;-71
2023/09/17 02:27:33;;;;;;;3.22;2.92;;;;;;;;;;5010659;28;20034;-72
2023/09/17 02:29:59;;;;;;;3.50;2.67;;;;;;;;;;4995001;28;20045;-72
2023/09/17 02:32:24;;;;;;;4.82;3.65;;;;;;;;;;4974803;28;20050;-72
2023/09/17 02:34:50;;;;;;;3.13;2.83;;;;;;;;;;5012357;28;20036;-73
2023/09/17 02:37:15;;;;;;;3.83;3.53;;;;;;;;;;5007864;28;20041;-72
2023/09/17 02:39:41;;;;;;;4.20;3.35;;;;;;;;;;5010027;28;20596;-73
2023/09/17 02:42:06;;;;;;;4.30;3.90;;;;;;;;;;5011437;28;20036;-72
2023/09/17 02:44:32;;;;;;;4.20;3.53;;;;;;;;;;5004328;28;20033;-72
2023/09/17 02:46:57;;;;;;;3.10;2.80;;;;;;;;;;4992259;28;20068;-72
2023/09/17 02:49:22;;;;;;;3.53;3.22;;;;;;;;;;5006372;28;20383;-72
2023/09/17 02:51:51;;;;;;;4.25;3.70;;;;;;;;;;5009937;28;20582;-72
2023/09/17 02:54:16;;;;;;;6.45;5.53;;;;;;;;;;5010414;28;20044;-72
2023/09/17 02:56:42;;;;;;;5.35;4.85;;;;;;;;;;5012839;28;20586;-71
2023/09/17 02:59:08;;;;;;;3.83;3.50;;;;;;;;;;4997061;28;20068;-72
2023/09/17 03:01:33;;;;;;;4.00;3.60;;;;;;;;;;4999868;28;20453;-72
2023/09/17 03:03:58;;;;;;;4.07;3.67;;;;;;;;;;5006730;28;20034;-73
2023/09/17 03:06:24;;;;;;;3.20;2.90;;;;;;;;;;5012089;28;20317;-72
2023/09/17 03:08:50;;;;;;;4.53;3.72;;;;;;;;;;5016055;28;20049;-72
2023/09/17 03:11:17;;;;;;;4.93;3.80;;;;;;;;;;5006983;28;20561;-72
2023/09/17 03:13:46;;;;;;;3.83;3.47;;;;;;;;;;5004365;28;20063;-72
2023/09/17 03:16:15;;;;;;;3.83;3.53;;;;;;;;;;5005196;28;20045;-73
2023/09/17 03:18:43;;;;;;;4.07;3.50;;;;;;;;;;5011088;28;20053;-72
2023/09/17 03:21:09;;;;;;;4.15;3.67;;;;;;;;;;5012056;28;20059;-72
2023/09/17 03:23:35;;;;;;;4.30;3.90;;;;;;;;;;5003529;28;20493;-72
2023/09/17 03:26:01;;;;;;;3.65;3.35;;;;;;;;;;5013783;28;20588;-72
2023/09/17 03:28:27;;;;;;;3.83;3.53;;;;;;;;;;4980380;28;20149;-72
2023/09/17 03:30:54;;;;;;;4.50;3.90;;;;;;;;;;5015535;28;20075;-72
2023/09/17 03:33:19;;;;;;;3.67;3.38;;;;;;;;;;5008214;28;20056;-72
2023/09/17 03:35:46;;;;;;;3.70;3.40;;;;;;;;;;5008362;28;20064;-71
2023/09/17 03:38:11;;;;;;;4.63;4.20;;;;;;;;;;5006435;28;20037;-72
2023/09/17 03:40:38;;;;;;;3.60;3.30;;;;;;;;;;5008052;28;20124;-72
2023/09/17 03:43:03;;;;;;;4.20;3.80;;;;;;;;;;5004355;28;20049;-71
2023/09/17 03:45:29;;;;;;;3.30;2.97;;;;;;;;;;5009485;28;20044;-72
2023/09/17 03:47:54;;;;;;;4.80;3.53;;;;;;;;;;5006480;28;20041;-72
2023/09/17 03:50:20;;;;;;;3.80;3.50;;;;;;;;;;5009927;28;20044;-71
2023/09/17 03:52:47;;;;;;;3.45;3.15;;;;;;;;;;5016627;28;20040;-72
2023/09/17 03:55:13;;;;;;;3.25;2.95;;;;;;;;;;4999262;28;20032;-72
2023/09/17 03:57:40;;;;;;;5.72;3.33;;;;;;;;;;4999661;28;20049;-72
2023/09/17 04:00:07;;;;;;;4.90;4.38;;;;;;;;;;5009785;28;20596;-71
2023/09/17 04:02:36;;;;;;;3.95;3.65;;;;;;;;;;5012723;28;20158;-72
2023/09/17 04:05:13;;;;;;;4.18;3.60;;;;;;;;;;5007831;28;20165;-72
2023/09/17 04:07:44;;;;;;;15.75;4.50;;;;;;;;;;5000142;28;20044;-72
2023/09/17 04:10:10;;;;;;;8.00;3.60;;;;;;;;;;5002091;28;20037;-72
2023/09/17 04:12:36;;;;;;;4.35;3.58;;;;;;;;;;5017061;28;20055;-71
2023/09/17 04:15:13;;;;;;;5.60;4.13;;;;;;;;;;5013461;28;20037;-72
2023/09/17 04:17:41;;;;;;;4.35;3.95;;;;;;;;;;5006691;28;20087;-72
2023/09/17 04:20:11;;;;;;;5.88;3.35;;;;;;;;;;5003963;28;20041;-72
2023/09/17 04:22:37;;;;;;;5.75;4.20;;;;;;;;;;4995866;28;20053;-72
2023/09/17 04:25:04;;;;;;;4.80;3.80;;;;;;;;;;5012659;28;20137;-71
2023/09/17 04:27:30;;;;;;;4.45;4.05;;;;;;;;;;5012550;28;20096;-72
2023/09/17 04:29:55;;;;;;;5.30;3.78;;;;;;;;;;5006545;28;20045;-72
2023/09/17 04:32:21;;;;;;;4.45;3.75;;;;;;;;;;5010818;28;20544;-72
2023/09/17 04:34:46;;;;;;;3.35;2.80;;;;;;;;;;5001326;28;20038;-74
2023/09/17 04:37:12;;;;;;;3.95;3.55;;;;;;;;;;4979231;28;20050;-72
2023/09/17 04:39:38;;;;;;;3.90;3.50;;;;;;;;;;5006168;28;20447;-73
2023/09/17 04:42:05;;;;;;;4.35;3.50;;;;;;;;;;5007800;28;20064;-72
2023/09/17 04:44:31;;;;;;;4.00;3.58;;;;;;;;;;5004780;28;20041;-73
2023/09/17 04:46:56;;;;;;;3.95;3.55;;;;;;;;;;5014575;28;20518;-74
2023/09/17 04:49:21;;;;;;;2.65;2.45;;;;;;;;;;4994909;28;20054;-73
2023/09/17 04:51:47;;;;;;;4.60;2.95;;;;;;;;;;5008677;28;20056;-72
2023/09/17 04:54:12;;;;;;;4.00;3.50;;;;;;;;;;5006387;28;20033;-71
2023/09/17 04:56:37;;;;;;;3.15;2.85;;;;;;;;;;5009608;28;20612;-73
2023/09/17 04:59:04;;;;;;;3.90;3.50;;;;;;;;;;5008515;28;20037;-73
2023/09/17 05:01:29;;;;;;;5.00;4.50;;;;;;;;;;5005557;28;20049;-74
2023/09/17 05:03:55;;;;;;;3.60;3.25;;;;;;;;;;4994999;28;20136;-72
2023/09/17 05:06:20;;;;;;;3.78;3.47;;;;;;;;;;5013819;28;20041;-73
2023/09/17 05:08:46;;;;;;;4.05;3.20;;;;;;;;;;5006720;28;20041;-72
2023/09/17 05:11:11;;;;;;;4.63;3.90;;;;;;;;;;5011326;28;20037;-72
2023/09/17 05:13:37;;;;;;;3.22;2.92;;;;;;;;;;5006748;28;20041;-72
2023/09/17 05:16:03;;;;;;;2.88;2.67;;;;;;;;;;5002859;28;20075;-72
2023/09/17 05:18:29;;;;;;;3.40;3.10;;;;;;;;;;4987154;28;20711;-72
2023/09/17 05:20:54;;;;;;;5.60;3.90;;;;;;;;;;5019556;28;20064;-72
2023/09/17 05:23:21;;;;;;;3.63;3.33;;;;;;;;;;5016722;28;20037;-72
2023/09/17 05:25:46;;;;;;;4.80;3.40;;;;;;;;;;5015334;28;20049;-73
2023/09/17 05:28:11;;;;;;;4.15;3.70;;;;;;;;;;5015265;28;20036;-73
2023/09/17 05:30:37;;;;;;;3.97;3.60;;;;;;;;;;5001876;28;20033;-73
2023/09/17 05:33:06;;;;;;;4.32;3.92;;;;;;;;;;4999148;28;20053;-72
2023/09/17 05:35:32;;;;;;;4.68;4.10;;;;;;;;;;5012196;28;20529;-72
2023/09/17 05:37:57;;;;;;;4.30;3.83;;;;;;;;;;5011160;28;20159;-72
2023/09/17 05:40:23;;;;;;;4.82;4.30;;;;;;;;;;5013722;28;20168;-72
2023/09/17 05:42:49;;;;;;;4.30;3.90;;;;;;;;;;5008502;28;20103;-73
2023/09/17 05:45:15;;;;;;;4.03;3.63;;;;;;;;;;4998123;28;20045;-72
2023/09/17 05:47:42;;;;;;;5.32;3.95;;;;;;;;;;4995810;28;20045;-72
2023/09/17 05:50:09;;;;;;;4.10;3.65;;;;;;;;;;5009872;28;20041;-72
2023/09/17 05:52:34;;;;;;;3.58;3.28;;;;;;;;;;5009942;28;20127;-73
2023/09/17 05:55:04;;;;;;;4.28;3.22;;;;;;;;;;5005830;28;20549;-73
2023/09/17 05:57:30;;;;;;;3.50;3.20;;;;;;;;;;4989635;28;20044;-74
2023/09/17 05:59:55;;;;;;;3.85;3.55;;;;;;;;;;4989902;28;20045;-73
2023/09/17 06:02:21;;;;;;;3.30;3.00;;;;;;;;;;5008685;28;20041;-72
2023/09/17 06:04:52;;;;;;;3.83;3.50;;;;;;;;;;5002390;28;20091;-72
2023/09/17 06:07:18;;;;;;;3.22;2.92;;;;;;;;;;5000662;28;20050;-73
2023/09/17 06:09:44;;;;;;;4.38;3.47;;;;;;;;;;5011227;28;20033;-73
2023/09/17 06:12:09;;;;;;;3.58;3.10;;;;;;;;;;4993744;28;20162;-72
2023/09/17 06:14:35;;;;;;;3.33;3.03;;;;;;;;;;5000193;28;20544;-72
2023/09/17 06:17:00;;;;;;;4.13;3.67;;;;;;;;;;5008749;28;20033;-73
2023/09/17 06:19:27;;;;;;;3.08;2.78;;;;;;;;;;5008517;28;20042;-73
2023/09/17 06:21:53;;;;;;;3.10;2.80;;;;;;;;;;5009303;28;20056;-72
2023/09/17 06:24:18;;;;;;;3.63;2.88;;;;;;;;;;5007768;28;20068;-72
2023/09/17 06:26:43;;;;;;;3.03;2.72;;;;;;;;;;4998592;28;20045;-73
2023/09/17 06:29:11;;;;;;;3.97;3.33;;;;;;;;;;4992207;28;20048;-73
2023/09/17 06:31:36;;;;;;;3.30;3.00;;;;;;;;;;5006692;28;20126;-72
2023/09/17 06:34:02;;;;;;;4.05;3.47;;;;;;;;;;5009826;28;20478;-72
2023/09/17 06:36:28;;;;;;;3.83;3.53;;;;;;;;;;5014541;28;20041;-72
2023/09/17 06:38:54;;;;;;;5.63;3.70;;;;;;;;;;5013857;28;20183;-72
2023/09/17 06:41:19;;;;;;;6.13;4.57;;;;;;;;;;4999707;28;20124;-73
2023/09/17 06:43:46;;;;;;;4.93;4.45;;;;;;;;;;5001733;28;20652;-73
2023/09/17 06:46:11;;;;;;;4.13;3.72;;;;;;;;;;5012892;28;20064;-73
2023/09/17 06:48:37;;;;;;;5.50;5.00;;;;;;;;;;4995540;28;20078;-73
2023/09/17 06:51:02;;;;;;;6.45;5.40;;;;;;;;;;5014290;28;20510;-73
2023/09/17 06:53:27;;;;;;;6.88;6.18;;;;;;;;;;5010286;28;20037;-74
2023/09/17 06:55:53;;;;;;;9.77;7.25;;;;;;;;;;4995419;28;20136;-72
2023/09/17 06:58:18;;;;;;;9.20;6.35;;;;;;;;;;5011764;28;20051;-72
2023/09/17 07:00:44;;;;;;;6.97;5.80;;;;;;;;;;5012592;28;20123;-73
2023/09/17 07:03:10;;;;;;;9.57;6.65;;;;;;;;;;5007991;28;20209;-72
2023/09/17 07:05:35;;;;;;;9.95;7.68;;;;;;;;;;4997866;28;20052;-72
2023/09/17 07:08:01;;;;;;;9.80;7.88;;;;;;;;;;5011951;28;20468;-73
2023/09/17 07:10:26;;;;;;;9.05;6.78;;;;;;;;;;4993697;28;20040;-72
2023/09/17 07:12:52;;;;;;;9.80;8.23;;;;;;;;;;5008939;28;20049;-72
2023/09/17 07:15:18;;;;;;;10.32;8.13;;;;;;;;;;5008330;28;20067;-72
2023/09/17 07:17:44;;;;;;;10.18;8.35;;;;;;;;;;5007665;28;20049;-72
2023/09/17 07:20:13;;;;;;;11.82;8.50;;;;;;;;;;5010526;28;20053;-72
2023/09/17 07:22:38;;;;;;;9.88;8.55;;;;;;;;;;5003206;28;20168;-73
2023/09/17 07:25:04;;;;;;;9.80;8.25;;;;;;;;;;5000281;28;20522;-72
2023/09/17 07:27:31;;;;;;;9.63;8.10;;;;;;;;;;5009488;28;20061;-72
2023/09/17 07:29:57;;;;;;;12.15;7.82;;;;;;;;;;5009837;28;20046;-72
2023/09/17 07:32:31;;;;;;;8.50;7.60;;;;;;;;;;5010333;28;20049;-72
2023/09/17 07:34:57;;;;;;;11.05;7.43;;;;;;;;;;4996394;28;20080;-72
2023/09/17 07:37:22;;;;;;;8.38;6.65;;;;;;;;;;4987764;28;20041;-73
2023/09/17 07:39:55;;;;;;;10.23;7.85;;;;;;;;;;5005468;28;20079;-73
2023/09/17 07:42:21;;;;;;;6.60;5.90;;;;;;;;;;5013834;28;20060;-73
2023/09/17 07:44:46;;;;;;;10.15;8.15;;;;;;;;;;5012729;28;20689;-73
2023/09/17 07:47:12;;;;;;;12.23;8.98;;;;;;;;;;5010786;28;20045;-72
2023/09/17 07:49:38;;;;;;;9.93;8.15;;;;;;;;;;5001218;28;20057;-72
2023/09/17 07:52:04;;;;;;;10.02;8.40;;;;;;;;;;5002812;28;20033;-73
2023/09/17 07:54:30;;;;;;;14.02;9.35;;;;;;;;;;5014657;28;20049;-73
2023/09/17 07:56:56;;;;;;;12.73;9.95;;;;;;;;;;4995291;28;20046;-73
2023/09/17 07:59:22;;;;;;;7.80;5.97;;;;;;;;;;5009077;28;20110;-73
2023/09/17 08:01:49;;;;;;;8.93;6.75;;;;;;;;;;5000558;28;20565;-73
2023/09/17 08:04:15;;;;;;;9.25;6.85;;;;;;;;;;5003516;28;20043;-73
2023/09/17 08:06:40;;;;;;;13.15;8.73;;;;;;;;;;4999407;28;20041;-73
2023/09/17 08:09:06;;;;;;;11.40;8.15;;;;;;;;;;5010814;28;20116;-72
2023/09/17 08:11:31;;;;;;;7.35;6.13;;;;;;;;;;5010114;28;20049;-73
2023/09/17 08:13:57;;;;;;;5.93;5.05;;;;;;;;;;5009822;28;20111;-73
2023/09/17 08:16:24;;;;;;;10.75;7.88;;;;;;;;;;5011913;28;20045;-73
2023/09/17 08:18:50;;;;;;;8.40;7.10;;;;;;;;;;5000285;28;20041;-73
2023/09/17 08:21:15;;;;;;;9.07;7.10;;;;;;;;;;4997168;28;20486;-73
2023/09/17 08:23:42;;;;;;;9.85;7.65;;;;;;;;;;5011938;28;20120;-74
2023/09/17 08:26:08;;;;;;;8.52;7.10;;;;;;;;;;5011107;28;20091;-73
2023/09/17 08:28:34;;;;;;;9.70;7.30;;;;;;;;;;5015678;28;20037;-73
2023/09/17 08:31:00;;;;;;;8.18;7.05;;;;;;;;;;5009841;28;20038;-72
2023/09/17 08:33:25;;;;;;;9.77;6.07;;;;;;;;;;4986722;28;20052;-72
2023/09/17 08:35:51;;;;;;;11.93;6.85;;;;;;;;;;5009247;28;20048;-73
2023/09/17 08:38:16;;;;;;;9.07;7.07;;;;;;;;;;5014195;28;20581;-72
2023/09/17 08:40:43;;;;;;;5.75;4.72;;;;;;;;;;5012151;28;20510;-73
2023/09/17 08:43:09;;;;;;;6.10;5.22;;;;;;;;;;5008659;28;20534;-73
2023/09/17 08:45:35;;;;;;;6.45;5.82;;;;;;;;;;5013187;28;20079;-72
2023/09/17 08:48:01;;;;;;;7.07;5.70;;;;;;;;;;4970359;28;20066;-73
2023/09/17 08:50:30;;;;;;;6.68;5.68;;;;;;;;;;5011795;28;20037;-72
2023/09/17 08:53:06;;;;;;;6.80;5.67;;;;;;;;;;5006549;28;20041;-73
2023/09/17 08:55:31;;;;;;;6.53;5.65;;;;;;;;;;5005880;28;20110;-73
2023/09/17 08:58:11;;;;;;;6.13;5.53;;;;;;;;;;5011821;28;20449;-72
2023/09/17 09:00:39;;;;;;;6.27;5.67;;;;;;;;;;4974071;28;20125;-73
2023/09/17 09:03:07;;;;;;;3.83;3.40;;;;;;;;;;4995736;28;20116;-73
2023/09/17 09:05:35;;;;;;;7.25;6.20;;;;;;;;;;5013382;28;20044;-72
2023/09/17 09:08:01;;;;;;;6.07;5.43;;;;;;;;;;5005091;28;20037;-73
2023/09/17 09:10:26;;;;;;;6.53;5.38;;;;;;;;;;5015665;28;20036;-72
2023/09/17 09:12:52;;;;;;;6.38;5.78;;;;;;;;;;4986746;28;20038;-73
2023/09/17 09:15:18;;;;;;;7.95;6.10;;;;;;;;;;5010418;28;20084;-73
2023/09/17 09:17:43;;;;;;;7.30;5.90;;;;;;;;;;5015294;28;20104;-73
2023/09/17 09:20:10;;;;;;;7.22;6.15;;;;;;;;;;5003967;28;20045;-74
2023/09/17 09:22:37;;;;;;;6.05;5.45;;;;;;;;;;5014299;28;20040;-73
2023/09/17 09:25:05;;;;;;;7.10;5.78;;;;;;;;;;5013493;28;20040;-72
2023/09/17 09:27:30;;;;;;;8.02;6.40;;;;;;;;;;4981940;28;20040;-73
2023/09/17 09:29:56;;;;;;;7.20;5.82;;;;;;;;;;5006992;28;20501;-73
2023/09/17 09:32:21;;;;;;;6.57;5.80;;;;;;;;;;5003653;28;20105;-72
2023/09/17 09:34:48;;;;;;;6.28;5.68;;;;;;;;;;5008119;28;20041;-73
2023/09/17 09:37:13;;;;;;;5.50;4.30;;;;;;;;;;5006975;28;20092;-72
2023/09/17 09:39:41;;;;;;;6.72;5.97;;;;;;;;;;5000577;28;20041;-73
2023/09/17 09:42:11;;;;;;;3.75;3.38;;;;;;;;;;4971776;28;20054;-73
2023/09/17 09:44:37;;;;;;;5.55;4.60;;;;;;;;;;5001976;28;20045;-73
2023/09/17 09:47:02;;;;;;;4.35;3.40;;;;;;;;;;5008122;28;20117;-72
2023/09/17 09:49:38;;;;;;;5.70;5.20;;;;;;;;;;5003292;28;20049;-73
2023/09/17 09:52:04;;;;;;;7.32;6.18;;;;;;;;;;5008427;28;20040;-73
2023/09/17 09:54:29;;;;;;;4.28;3.88;;;;;;;;;;4994055;28;20033;-73
2023/09/17 09:56:55;;;;;;;5.05;4.60;;;;;;;;;;5005867;28;20662;-73
2023/09/17 09:59:21;;;;;;;5.53;4.90;;;;;;;;;;5008304;28;20045;-73
2023/09/17 10:01:46;;;;;;;5.95;5.35;;;;;;;;;;5011234;28;20038;-74
2023/09/17 10:04:12;;;;;;;4.60;4.15;;;;;;;;;;4999129;28;20092;-73
2023/09/17 10:06:39;;;;;;;6.88;5.13;;;;;;;;;;5009120;28;20091;-74
2023/09/17 10:09:06;;;;;;;8.02;5.88;;;;;;;;;;4990910;28;20041;-75
2023/09/17 10:11:32;;;;;;;5.28;4.63;;;;;;;;;;5011293;28;20036;-73
2023/09/17 10:14:04;;;;;;;5.47;4.88;;;;;;;;;;5011752;28;20095;-74
2023/09/17 10:16:30;;;;;;;5.03;4.53;;;;;;;;;;5011564;28;20041;-74
2023/09/17 10:18:58;;;;;;;4.28;3.80;;;;;;;;;;5006593;28;20390;-74
2023/09/17 10:21:26;;;;;;;5.07;4.57;;;;;;;;;;4969452;28;20455;-73
2023/09/17 10:23:53;;;;;;;4.72;4.32;;;;;;;;;;4995491;28;20040;-73
2023/09/17 10:26:22;;;;;;;4.47;4.07;;;;;;;;;;5004217;28;20042;-73
2023/09/17 10:28:48;;;;;;;4.10;3.80;;;;;;;;;;5009856;28;20503;-74
2023/09/17 10:31:15;;;;;;;4.82;4.43;;;;;;;;;;5007529;28;20104;-73
2023/09/17 10:33:43;;;;;;;4.30;3.90;;;;;;;;;;5011324;28;20129;-73
2023/09/17 10:36:11;;;;;;;4.45;3.67;;;;;;;;;;4956014;28;20115;-73
2023/09/17 10:38:39;;;;;;;4.82;4.43;;;;;;;;;;5007056;28;20041;-74
2023/09/17 10:41:05;;;;;;;3.90;3.50;;;;;;;;;;5012583;28;20149;-73
2023/09/17 10:43:35;;;;;;;4.18;3.78;;;;;;;;;;5007869;28;20045;-73
2023/09/17 10:46:03;;;;;;;3.80;3.55;;;;;;;;;;5011341;28;20098;-72
2023/09/17 10:48:31;;;;;;;4.30;3.38;;;;;;;;;;4995394;28;20049;-74
2023/09/17 10:50:58;;;;;;;4.53;3.20;;;;;;;;;;5001361;28;20053;-73
2023/09/17 10:53:26;;;;;;;3.38;3.08;;;;;;;;;;5010129;28;20042;-73
2023/09/17 10:56:00;;;;;;;3.80;3.47;;;;;;;;;;4993668;28;20692;-74
2023/09/17 10:58:35;;;;;;;4.50;3.78;;;;;;;;;;5014126;28;20040;-73
2023/09/17 11:01:01;;;;;;;3.47;3.17;;;;;;;;;;4989504;28;20430;-73
2023/09/17 11:03:29;;;;;;;4.07;3.67;;;;;;;;;;5015101;28;20083;-73
2023/09/17 11:05:56;;;;;;;3.22;2.92;;;;;;;;;;5008957;28;20103;-74
2023/09/17 11:08:22;;;;;;;3.42;3.22;;;;;;;;;;5007306;28;20489;-73
2023/09/17 11:10:47;;;;;;;4.28;3.90;;;;;;;;;;5003964;28;20065;-73
2023/09/17 11:13:14;;;;;;;4.72;3.80;;;;;;;;;;5002487;28;20038;-74
2023/09/17 11:15:41;;;;;;;5.90;3.60;;;;;;;;;;4993936;28;20379;-73
2023/09/17 11:18:07;;;;;;;3.60;3.28;;;;;;;;;;5010504;28;20038;-73
2023/09/17 11:20:33;;;;;;;5.95;3.88;;;;;;;;;;5021878;28;20750;-74
2023/09/17 11:23:01;;;;;;;4.40;3.38;;;;;;;;;;5020043;28;20048;-73
2023/09/17 11:25:39;;;;;;;3.60;3.30;;;;;;;;;;5025474;28;20055;-73
2023/09/17 11:28:10;;;;;;;4.65;3.72;;;;;;;;;;4988120;28;20113;-72
2023/09/17 11:31:02;;;;;;;4.53;3.60;;;;;;;;;;5002895;28;20060;-72
2023/09/17 11:33:29;;;;;;;3.97;3.67;;;;;;;;;;5011440;28;20120;-72
2023/09/17 11:35:55;;;;;;;3.17;2.85;;;;;;;;;;5020355;28;20041;-73
2023/09/17 11:38:25;;;;;;;3.10;2.90;;;;;;;;;;4978895;28;20047;-72
2023/09/17 11:41:09;;;;;;;3.80;3.42;;;;;;;;;;5014615;28;20519;-72
2023/09/17 11:43:37;;;;;;;3.47;3.17;;;;;;;;;;5003023;28;20453;-72
2023/09/17 11:46:04;;;;;;;3.28;2.97;;;;;;;;;;5020683;28;20128;-72
2023/09/17 11:48:32;;;;;;;3.60;3.30;;;;;;;;;;5019035;28;20038;-75
2023/09/17 11:51:29;;;;;;;2.95;2.75;;;;;;;;;;4977448;28;20042;-73
2023/09/17 11:54:23;;;;;;;4.00;3.60;;;;;;;;;;5020131;28;20509;-75
2023/09/17 11:56:55;;;;;;;4.63;3.70;;;;;;;;;;5017862;28;20068;-74
2023/09/17 11:59:22;;;;;;;4.43;3.50;;;;;;;;;;4960103;28;20771;-74
2023/09/17 12:01:52;;;;;;;3.00;2.80;;;;;;;;;;5003782;28;20045;-75
2023/09/17 12:04:19;;;;;;;4.05;3.35;;;;;;;;;;5019157;28;20044;-74
2023/09/17 12:06:49;;;;;;;2.97;2.72;;;;;;;;;;4999441;28;20104;-74
2023/09/17 12:12:27;;;;;;;3.08;2.65;;;;;;;;;;4959791;28;20086;-75
2023/09/17 12:14:53;;;;;;;2.88;2.67;;;;;;;;;;5007303;28;20064;-74
2023/09/17 12:17:19;;;;;;;3.33;3.00;;;;;;;;;;5012415;28;20494;-74
2023/09/17 12:19:46;;;;;;;2.83;2.63;;;;;;;;;;5009373;28;20462;-74
2023/09/17 12:22:11;;;;;;;3.83;3.53;;;;;;;;;;5011257;28;20029;-74
2023/09/17 12:25:24;;;;;;;3.67;3.40;;;;;;;;;;4976822;28;20406;-75
2023/09/17 12:27:50;;;;;;;4.00;3.60;;;;;;;;;;5012494;28;20095;-74
2023/09/17 12:30:15;;;;;;;2.80;2.60;;;;;;;;;;5000829;28;20104;-74
2023/09/17 12:32:41;;;;;;;3.13;2.92;;;;;;;;;;4992882;28;20397;-75
2023/09/17 12:35:07;;;;;;;3.83;3.53;;;;;;;;;;5002851;28;20045;-75
2023/09/17 12:37:33;;;;;;;3.97;3.22;;;;;;;;;;4990831;28;20038;-74
2023/09/17 12:39:59;;;;;;;3.95;3.65;;;;;;;;;;5020351;28;20041;-74
2023/09/17 12:42:24;;;;;;;4.20;3.80;;;;;;;;;;5016473;28;20517;-74
2023/09/17 12:44:51;;;;;;;4.10;3.60;;;;;;;;;;5013250;28;20131;-75
2023/09/17 12:47:17;;;;;;;4.30;3.70;;;;;;;;;;5017595;28;20056;-75
2023/09/17 12:49:43;;;;;;;3.25;2.88;;;;;;;;;;5014534;28;20048;-75
2023/09/17 12:52:09;;;;;;;5.10;3.05;;;;;;;;;;4999327;28;20042;-76
2023/09/17 12:54:34;;;;;;;4.30;3.90;;;;;;;;;;5012310;28;20042;-74
2023/09/17 12:57:00;;;;;;;4.78;3.92;;;;;;;;;;5008664;28;20083;-75
2023/09/17 12:59:33;;;;;;;4.00;3.70;;;;;;;;;;5014455;28;20098;-74
2023/09/17 13:02:01;;;;;;;3.65;3.35;;;;;;;;;;5006173;28;20057;-74
2023/09/17 13:04:40;;;;;;;3.70;3.40;;;;;;;;;;4999217;28;20041;-74
2023/09/17 13:07:21;;;;;;;3.72;3.35;;;;;;;;;;5005397;28;20069;-73
2023/09/17 13:09:48;;;;;;;4.18;3.78;;;;;;;;;;5004753;28;20049;-74
2023/09/17 13:12:17;;;;;;;5.18;3.70;;;;;;;;;;5007476;28;20049;-73
2023/09/17 13:14:43;;;;;;;4.13;3.38;;;;;;;;;;4992222;28;20387;-74
2023/09/17 13:17:09;;;;;;;3.65;3.10;;;;;;;;;;5012088;28;20041;-75
2023/09/17 13:19:36;;;;;;;3.88;3.47;;;;;;;;;;5008729;28;20136;-74
2023/09/17 13:22:01;;;;;;;3.80;3.50;;;;;;;;;;5014980;28;20107;-75
2023/09/17 13:24:28;;;;;;;4.80;3.15;;;;;;;;;;5006288;28;20041;-73
2023/09/17 13:26:59;;;;;;;3.67;3.38;;;;;;;;;;5012341;28;20041;-74
2023/09/17 13:29:33;;;;;;;3.38;2.88;;;;;;;;;;4970026;28;20124;-74
2023/09/17 13:31:59;;;;;;;2.97;2.78;;;;;;;;;;5015781;28;20040;-73
2023/09/17 13:34:24;;;;;;;3.33;3.08;;;;;;;;;;5014536;28;20033;-74
2023/09/17 13:36:50;;;;;;;3.60;3.30;;;;;;;;;;5017236;28;20132;-74
2023/09/17 13:39:16;;;;;;;3.17;2.97;;;;;;;;;;5009384;28;20073;-74
2023/09/17 13:41:42;;;;;;;3.22;2.90;;;;;;;;;;4984465;28;20119;-74
2023/09/17 13:44:08;;;;;;;3.00;2.80;;;;;;;;;;4968232;28;20209;-74
2023/09/17 13:46:33;;;;;;;3.40;3.10;;;;;;;;;;4996649;28;20041;-74
2023/09/17 13:48:59;;;;;;;3.78;3.45;;;;;;;;;;5020509;28;20112;-74
2023/09/17 13:51:24;;;;;;;3.83;3.53;;;;;;;;;;5011275;28;20037;-74
2023/09/17 13:53:50;;;;;;;2.88;2.67;;;;;;;;;;5019519;28;20064;-74
2023/09/17 13:56:15;;;;;;;3.08;2.85;;;;;;;;;;5009615;28;20045;-74
2023/09/17 13:58:41;;;;;;;3.40;2.97;;;;;;;;;;4999753;28;20119;-73
2023/09/17 14:01:06;;;;;;;3.40;3.20;;;;;;;;;;5011564;28;20079;-73
2023/09/17 14:03:32;;;;;;;3.85;3.15;;;;;;;;;;5005739;28;20049;-74
2023/09/17 14:05:57;;;;;;;3.50;3.20;;;;;;;;;;5007828;28;20041;-74
2023/09/17 14:08:23;;;;;;;3.30;3.08;;;;;;;;;;5010589;28;20083;-74
2023/09/17 14:10:48;;;;;;;3.67;3.38;;;;;;;;;;4990310;28;20184;-73
2023/09/17 14:13:15;;;;;;;3.50;3.20;;;;;;;;;;5003007;28;20114;-74
2023/09/17 14:15:41;;;;;;;3.60;3.30;;;;;;;;;;5014861;28;20139;-74
2023/09/17 14:18:07;;;;;;;4.72;3.45;;;;;;;;;;5011577;28;20076;-74
2023/09/17 14:20:33;;;;;;;3.10;2.90;;;;;;;;;;5014746;28;20044;-74
2023/09/17 14:23:00;;;;;;;3.00;2.80;;;;;;;;;;5013979;28;20037;-75
2023/09/17 14:25:25;;;;;;;2.88;2.67;;;;;;;;;;4992765;28;20033;-74
2023/09/17 14:27:50;;;;;;;2.92;2.70;;;;;;;;;;5019088;28;20048;-75
2023/09/17 14:30:22;;;;;;;3.15;2.90;;;;;;;;;;5014242;28;20437;-73
2023/09/17 14:32:50;;;;;;;3.60;3.08;;;;;;;;;;5016179;28;20122;-75
2023/09/17 14:35:16;;;;;;;3.15;2.75;;;;;;;;;;5009818;28;20052;-74
2023/09/17 14:37:42;;;;;;;3.28;2.95;;;;;;;;;;4997664;28;20405;-74
2023/09/17 14:40:08;;;;;;;3.40;3.20;;;;;;;;;;4962237;28;20329;-74
2023/09/17 14:42:34;;;;;;;2.85;2.60;;;;;;;;;;4988648;28;20533;-75
2023/09/17 14:44:59;;;;;;;7.57;3.15;;;;;;;;;;5016454;28;20033;-74